Time;durP1;ratioP1;P1;durP2;ratioP2;P2;SDS_P1;SDS_P2;PMS_P1;PMS_P2;Temp;Humidity;BMP_temperature;BMP_pressure;BME280_temperature;BME280_humidity;BME280_pressure;Samples;Min_cycle;Max_cycle;Signal;HPM_P1;HPM_P2
2023/07/25 00:01:09;;;;;;;813.08;588.97;;;;;;;;;;5050113;28;20493;-61
2023/07/25 00:03:37;;;;;;;802.17;541.58;;;;;;;;;;5057010;28;20424;-62
2023/07/25 00:06:04;;;;;;;801.03;541.73;;;;;;;;;;5066128;28;20423;-61
2023/07/25 00:08:32;;;;;;;805.35;561.63;;;;;;;;;;5061795;28;20527;-62
2023/07/25 00:10:59;;;;;;;808.53;561.50;;;;;;;;;;5054927;28;20472;-62
2023/07/25 00:13:27;;;;;;;806.60;552.90;;;;;;;;;;5060285;28;20427;-62
2023/07/25 00:15:54;;;;;;;808.57;562.53;;;;;;;;;;5057145;28;20545;-62
2023/07/25 00:18:24;;;;;;;813.45;559.97;;;;;;;;;;5050071;28;20449;-62
2023/07/25 00:20:51;;;;;;;809.40;548.00;;;;;;;;;;5060088;28;20448;-62
2023/07/25 00:23:18;;;;;;;810.30;539.30;;;;;;;;;;5056657;28;20429;-63
2023/07/25 00:25:48;;;;;;;814.92;542.50;;;;;;;;;;5061964;28;20917;-62
2023/07/25 00:28:15;;;;;;;819.03;548.35;;;;;;;;;;5064521;28;20506;-62
2023/07/25 00:30:43;;;;;;;816.38;545.10;;;;;;;;;;5050238;28;20531;-62
2023/07/25 00:33:12;;;;;;;816.47;537.88;;;;;;;;;;5057231;28;20429;-62
2023/07/25 00:35:53;;;;;;;818.35;546.00;;;;;;;;;;5059043;28;20931;-62
2023/07/25 00:38:20;;;;;;;815.03;552.05;;;;;;;;;;5060490;28;20521;-62
2023/07/25 00:40:50;;;;;;;820.20;562.83;;;;;;;;;;5063590;28;20454;-62
2023/07/25 00:43:18;;;;;;;814.90;546.50;;;;;;;;;;5066302;28;20921;-62
2023/07/25 00:45:45;;;;;;;820.13;562.53;;;;;;;;;;5053902;28;20848;-62
2023/07/25 00:48:12;;;;;;;821.22;556.30;;;;;;;;;;5062661;28;20443;-62
2023/07/25 00:50:46;;;;;;;821.95;548.50;;;;;;;;;;5055657;28;20433;-62
2023/07/25 00:53:13;;;;;;;818.50;551.97;;;;;;;;;;5057734;28;20810;-62
2023/07/25 00:55:41;;;;;;;815.45;536.92;;;;;;;;;;5062423;28;21059;-62
2023/07/25 00:58:11;;;;;;;817.07;550.17;;;;;;;;;;5055336;28;20490;-62
2023/07/25 01:00:38;;;;;;;819.80;562.53;;;;;;;;;;5052356;28;20444;-62
2023/07/25 01:03:06;;;;;;;817.22;553.53;;;;;;;;;;5064291;28;20447;-62
2023/07/25 01:05:39;;;;;;;816.33;546.90;;;;;;;;;;5054079;28;20522;-62
2023/07/25 01:08:07;;;;;;;821.00;564.88;;;;;;;;;;5051544;28;20433;-62
2023/07/25 01:10:36;;;;;;;818.20;558.13;;;;;;;;;;5056472;28;20917;-62
2023/07/25 01:13:03;;;;;;;818.10;553.35;;;;;;;;;;5048655;28;20427;-61
2023/07/25 01:15:31;;;;;;;817.70;544.05;;;;;;;;;;5068603;28;20451;-62
2023/07/25 01:17:58;;;;;;;821.00;555.30;;;;;;;;;;5062894;28;20766;-62
2023/07/25 01:20:28;;;;;;;820.40;555.17;;;;;;;;;;5082757;28;20457;-62
2023/07/25 01:22:55;;;;;;;821.85;565.67;;;;;;;;;;5075709;28;20453;-64
2023/07/25 01:25:23;;;;;;;819.83;559.60;;;;;;;;;;5068741;28;20444;-62
2023/07/25 01:27:50;;;;;;;817.67;554.15;;;;;;;;;;5082210;28;20430;-62
2023/07/25 01:30:17;;;;;;;824.30;558.73;;;;;;;;;;5076394;28;20433;-62
2023/07/25 01:32:44;;;;;;;825.45;557.65;;;;;;;;;;5075771;28;20471;-62
2023/07/25 01:35:11;;;;;;;827.60;557.28;;;;;;;;;;5085384;28;20425;-62
2023/07/25 01:37:46;;;;;;;827.50;566.88;;;;;;;;;;5077308;28;20510;-62
2023/07/25 01:40:15;;;;;;;837.63;561.83;;;;;;;;;;5068364;28;20428;-62
2023/07/25 01:42:53;;;;;;;834.08;550.05;;;;;;;;;;5061609;28;20908;-62
2023/07/25 01:45:22;;;;;;;835.63;554.85;;;;;;;;;;5080970;28;20448;-62
2023/07/25 01:47:53;;;;;;;816.00;561.00;;;;;;;;;;5072673;28;20801;-62
2023/07/25 01:50:20;;;;;;;832.17;557.78;;;;;;;;;;5073132;28;20480;-62
2023/07/25 01:52:48;;;;;;;834.72;557.10;;;;;;;;;;5081606;28;20482;-62
2023/07/25 01:55:15;;;;;;;830.45;548.83;;;;;;;;;;5078188;28;20445;-62
2023/07/25 01:57:42;;;;;;;820.00;540.75;;;;;;;;;;5081727;28;20483;-62
2023/07/25 02:00:09;;;;;;;826.00;537.25;;;;;;;;;;5068763;28;20853;-62
2023/07/25 02:02:37;;;;;;;833.83;552.20;;;;;;;;;;5061533;28;20433;-62
2023/07/25 02:05:07;;;;;;;825.73;545.07;;;;;;;;;;5085631;28;20425;-62
2023/07/25 02:07:37;;;;;;;822.03;543.17;;;;;;;;;;5090298;28;20426;-61
2023/07/25 02:10:05;;;;;;;812.60;538.65;;;;;;;;;;5075482;28;20782;-61
2023/07/25 02:12:32;;;;;;;815.88;531.80;;;;;;;;;;5079661;28;20483;-60
2023/07/25 02:14:59;;;;;;;812.72;534.28;;;;;;;;;;5081134;28;20504;-61
2023/07/25 02:17:29;;;;;;;800.55;529.67;;;;;;;;;;5079938;28;20571;-61
2023/07/25 02:19:56;;;;;;;797.22;524.00;;;;;;;;;;5072413;28;20431;-61
2023/07/25 02:22:27;;;;;;;792.17;520.37;;;;;;;;;;5086517;28;20484;-61
2023/07/25 02:24:54;;;;;;;784.50;515.47;;;;;;;;;;5063569;28;20423;-61
2023/07/25 02:27:21;;;;;;;800.05;492.20;;;;;;;;;;5077608;28;20427;-61
2023/07/25 02:29:51;;;;;;;768.35;484.08;;;;;;;;;;5086148;28;20937;-62
2023/07/25 02:32:18;;;;;;;754.80;477.75;;;;;;;;;;5076345;28;20870;-61
2023/07/25 02:34:48;;;;;;;766.05;485.60;;;;;;;;;;5074071;28;20792;-61
2023/07/25 02:37:18;;;;;;;748.97;478.80;;;;;;;;;;5082925;28;20513;-61
2023/07/25 02:39:45;;;;;;;735.67;461.60;;;;;;;;;;5076982;28;20512;-61
2023/07/25 02:42:13;;;;;;;725.75;460.73;;;;;;;;;;5071007;28;20941;-61
2023/07/25 02:44:40;;;;;;;724.85;458.55;;;;;;;;;;5078614;28;20433;-61
2023/07/25 02:47:09;;;;;;;734.88;483.30;;;;;;;;;;5082804;28;20505;-61
2023/07/25 02:49:42;;;;;;;719.77;449.43;;;;;;;;;;5082021;28;20422;-62
2023/07/25 02:52:10;;;;;;;719.63;458.63;;;;;;;;;;5070651;28;25116;-62
2023/07/25 02:54:37;;;;;;;705.95;421.88;;;;;;;;;;5086423;28;20443;-61
2023/07/25 02:57:05;;;;;;;708.28;428.60;;;;;;;;;;5063916;28;20424;-61
2023/07/25 02:59:32;;;;;;;706.97;408.10;;;;;;;;;;5077162;28;20429;-61
2023/07/25 03:01:59;;;;;;;704.88;429.23;;;;;;;;;;5070267;28;20432;-62
2023/07/25 03:04:26;;;;;;;715.33;445.65;;;;;;;;;;5078008;28;20419;-61
2023/07/25 03:06:56;;;;;;;719.03;456.83;;;;;;;;;;5082630;28;20484;-62
2023/07/25 03:09:27;;;;;;;696.35;418.08;;;;;;;;;;5078552;28;20424;-61
2023/07/25 03:11:54;;;;;;;689.17;414.70;;;;;;;;;;5085423;28;20458;-62
2023/07/25 03:14:21;;;;;;;690.80;412.98;;;;;;;;;;5080249;28;20926;-61
2023/07/25 03:16:55;;;;;;;695.35;428.70;;;;;;;;;;5081691;28;20562;-62
2023/07/25 03:19:22;;;;;;;696.60;435.48;;;;;;;;;;5077923;28;20426;-63
2023/07/25 03:21:51;;;;;;;694.80;425.33;;;;;;;;;;5067987;28;20480;-64
2023/07/25 03:24:18;;;;;;;695.88;436.85;;;;;;;;;;5085174;28;20480;-64
2023/07/25 03:26:45;;;;;;;693.38;437.00;;;;;;;;;;5073783;28;20421;-64
2023/07/25 03:29:13;;;;;;;674.15;410.60;;;;;;;;;;5074848;28;20498;-64
2023/07/25 03:31:40;;;;;;;680.30;400.10;;;;;;;;;;5075598;28;20512;-64
2023/07/25 03:34:07;;;;;;;679.88;352.85;;;;;;;;;;5081492;28;20425;-65
2023/07/25 03:36:34;;;;;;;688.30;342.83;;;;;;;;;;5077200;28;20461;-64
2023/07/25 03:39:04;;;;;;;676.53;341.70;;;;;;;;;;5069871;28;20452;-65
2023/07/25 03:41:31;;;;;;;664.40;351.80;;;;;;;;;;5079478;28;20449;-64
2023/07/25 03:43:59;;;;;;;619.00;355.70;;;;;;;;;;5078100;28;20523;-64
2023/07/25 03:46:26;;;;;;;610.53;328.70;;;;;;;;;;5080485;28;20427;-64
2023/07/25 03:48:53;;;;;;;612.75;322.85;;;;;;;;;;5082240;28;20488;-65
2023/07/25 03:51:23;;;;;;;619.90;338.48;;;;;;;;;;5069452;28;20520;-65
2023/07/25 03:53:50;;;;;;;627.50;346.17;;;;;;;;;;5058293;28;20426;-65
2023/07/25 03:56:17;;;;;;;632.10;355.90;;;;;;;;;;5072823;28;20836;-65
2023/07/25 03:58:44;;;;;;;627.38;353.27;;;;;;;;;;5072911;28;20493;-65
2023/07/25 04:01:11;;;;;;;623.50;369.83;;;;;;;;;;5087592;28;20453;-65
2023/07/25 04:03:41;;;;;;;636.67;383.17;;;;;;;;;;5076360;28;20430;-64
2023/07/25 04:06:12;;;;;;;643.50;385.92;;;;;;;;;;5089004;28;20425;-64
2023/07/25 04:08:40;;;;;;;644.83;385.05;;;;;;;;;;5081272;28;20886;-63
2023/07/25 04:11:07;;;;;;;643.03;390.60;;;;;;;;;;5081047;28;20966;-63
2023/07/25 04:13:36;;;;;;;637.13;379.60;;;;;;;;;;5079924;28;20417;-64
2023/07/25 04:16:03;;;;;;;631.97;371.98;;;;;;;;;;5069975;28;20874;-63
2023/07/25 04:18:31;;;;;;;629.88;374.52;;;;;;;;;;5081200;28;20430;-63
2023/07/25 04:20:58;;;;;;;623.15;362.67;;;;;;;;;;5080608;28;20499;-64
2023/07/25 04:23:26;;;;;;;618.95;354.17;;;;;;;;;;5077245;28;20426;-63
2023/07/25 04:25:53;;;;;;;618.57;357.00;;;;;;;;;;5081015;28;20499;-63
2023/07/25 04:28:20;;;;;;;620.28;358.95;;;;;;;;;;5085868;28;20536;-63
2023/07/25 04:30:47;;;;;;;621.88;365.00;;;;;;;;;;5086209;28;20429;-64
2023/07/25 04:33:15;;;;;;;620.40;356.42;;;;;;;;;;5083968;28;20803;-63
2023/07/25 04:35:45;;;;;;;624.65;366.98;;;;;;;;;;5081656;28;20436;-63
2023/07/25 04:38:13;;;;;;;628.53;380.38;;;;;;;;;;5065189;28;20452;-62
2023/07/25 04:40:41;;;;;;;628.30;373.98;;;;;;;;;;5082639;28;20434;-63
2023/07/25 04:43:08;;;;;;;631.72;381.55;;;;;;;;;;5072286;28;20434;-63
2023/07/25 04:45:36;;;;;;;632.95;388.10;;;;;;;;;;5081250;28;20436;-63
2023/07/25 04:48:03;;;;;;;621.92;369.48;;;;;;;;;;5085418;28;20465;-63
2023/07/25 04:50:31;;;;;;;618.70;366.05;;;;;;;;;;5084250;28;20864;-63
2023/07/25 04:52:58;;;;;;;623.45;373.85;;;;;;;;;;5080568;28;20431;-63
2023/07/25 04:55:25;;;;;;;623.60;372.83;;;;;;;;;;5084582;28;20418;-63
2023/07/25 04:57:52;;;;;;;621.08;365.60;;;;;;;;;;5082638;28;20430;-63
2023/07/25 05:00:22;;;;;;;632.47;383.25;;;;;;;;;;5078932;28;20825;-62
2023/07/25 05:02:49;;;;;;;636.20;396.27;;;;;;;;;;5073173;28;20427;-63
2023/07/25 05:05:17;;;;;;;633.92;386.33;;;;;;;;;;5085140;28;20858;-63
2023/07/25 05:07:47;;;;;;;631.90;376.83;;;;;;;;;;5067848;28;20427;-63
2023/07/25 05:10:14;;;;;;;631.65;379.50;;;;;;;;;;5071854;28;20433;-63
2023/07/25 05:12:41;;;;;;;634.28;392.25;;;;;;;;;;5085843;28;20427;-63
2023/07/25 05:15:08;;;;;;;629.25;381.95;;;;;;;;;;5073897;28;20427;-63
2023/07/25 05:17:36;;;;;;;629.43;375.93;;;;;;;;;;5079847;28;20453;-63
2023/07/25 05:20:03;;;;;;;628.00;379.05;;;;;;;;;;5078996;28;20483;-63
2023/07/25 05:22:30;;;;;;;627.50;379.20;;;;;;;;;;5068470;28;20505;-63
2023/07/25 05:24:57;;;;;;;629.30;384.23;;;;;;;;;;5078933;28;20422;-62
2023/07/25 05:27:27;;;;;;;624.63;375.67;;;;;;;;;;5068619;28;21134;-63
2023/07/25 05:29:55;;;;;;;630.38;388.38;;;;;;;;;;5061934;28;20429;-63
2023/07/25 05:32:25;;;;;;;630.55;392.15;;;;;;;;;;5077714;28;20436;-63
2023/07/25 05:34:52;;;;;;;628.70;384.30;;;;;;;;;;5084710;28;20482;-63
2023/07/25 05:37:19;;;;;;;632.40;394.45;;;;;;;;;;5077954;28;20471;-62
2023/07/25 05:39:53;;;;;;;639.25;391.10;;;;;;;;;;5084126;28;20492;-63
2023/07/25 05:42:20;;;;;;;636.00;389.42;;;;;;;;;;5084058;28;20442;-63
2023/07/25 05:44:47;;;;;;;635.28;391.35;;;;;;;;;;5079245;28;20483;-63
2023/07/25 05:47:18;;;;;;;629.97;371.97;;;;;;;;;;5086454;28;20441;-62
2023/07/25 05:49:46;;;;;;;651.55;387.55;;;;;;;;;;5082013;28;20433;-63
2023/07/25 05:52:14;;;;;;;707.13;467.25;;;;;;;;;;5067081;28;20433;-62
2023/07/25 05:54:41;;;;;;;744.72;499.65;;;;;;;;;;5074851;28;20846;-62
2023/07/25 05:57:08;;;;;;;780.00;541.75;;;;;;;;;;5080211;28;20768;-63
2023/07/25 05:59:35;;;;;;;809.92;577.47;;;;;;;;;;5083657;28;20524;-63
2023/07/25 06:02:04;;;;;;;825.08;581.15;;;;;;;;;;5069665;28;20482;-62
2023/07/25 06:04:31;;;;;;;845.58;609.45;;;;;;;;;;5078293;28;20442;-62
2023/07/25 06:06:58;;;;;;;855.58;614.85;;;;;;;;;;5084020;28;20845;-62
2023/07/25 06:09:25;;;;;;;862.13;625.15;;;;;;;;;;5084930;28;20425;-64
2023/07/25 06:11:55;;;;;;;866.90;627.15;;;;;;;;;;5083214;28;20552;-63
2023/07/25 06:14:22;;;;;;;861.50;623.05;;;;;;;;;;5074455;28;20517;-61
2023/07/25 06:16:52;;;;;;;855.33;617.15;;;;;;;;;;5079306;28;20428;-62
2023/07/25 06:19:19;;;;;;;849.28;613.67;;;;;;;;;;5082472;28;20497;-62
2023/07/25 06:21:49;;;;;;;840.00;602.37;;;;;;;;;;5077060;28;20482;-62
2023/07/25 06:24:17;;;;;;;836.08;597.35;;;;;;;;;;5074421;28;20428;-62
2023/07/25 06:26:44;;;;;;;830.47;593.67;;;;;;;;;;5087867;28;20444;-62
2023/07/25 06:29:11;;;;;;;809.28;568.28;;;;;;;;;;5068470;28;20903;-62
2023/07/25 06:31:40;;;;;;;780.77;526.87;;;;;;;;;;5074413;28;20512;-62
2023/07/25 06:34:07;;;;;;;777.40;531.58;;;;;;;;;;5084296;28;20430;-62
2023/07/25 06:36:35;;;;;;;776.60;534.00;;;;;;;;;;5081752;28;20436;-62
2023/07/25 06:39:05;;;;;;;767.58;512.90;;;;;;;;;;5079098;28;20453;-62
2023/07/25 06:41:32;;;;;;;766.67;508.00;;;;;;;;;;5077442;28;20462;-62
2023/07/25 06:44:00;;;;;;;761.47;489.17;;;;;;;;;;5082471;28;20430;-62
2023/07/25 06:46:29;;;;;;;760.03;492.83;;;;;;;;;;5064105;28;20509;-62
2023/07/25 06:48:56;;;;;;;763.08;488.17;;;;;;;;;;5077998;28;20515;-61
2023/07/25 06:51:24;;;;;;;762.33;497.23;;;;;;;;;;5076208;28;20425;-62
2023/07/25 06:53:51;;;;;;;764.22;502.15;;;;;;;;;;5083202;28;20449;-62
2023/07/25 06:56:18;;;;;;;766.50;512.20;;;;;;;;;;5076543;28;20447;-62
2023/07/25 06:58:45;;;;;;;770.92;520.35;;;;;;;;;;5086249;28;20489;-62
2023/07/25 07:01:13;;;;;;;768.63;514.83;;;;;;;;;;5085507;28;20463;-62
2023/07/25 07:03:40;;;;;;;770.45;520.17;;;;;;;;;;5080105;28;20513;-63
2023/07/25 07:06:07;;;;;;;767.57;527.87;;;;;;;;;;5080663;28;20432;-63
2023/07/25 07:08:34;;;;;;;765.88;510.15;;;;;;;;;;5085818;28;20761;-62
2023/07/25 07:11:02;;;;;;;768.05;513.08;;;;;;;;;;5082325;28;20784;-63
2023/07/25 07:13:29;;;;;;;763.38;512.38;;;;;;;;;;5072919;28;20436;-63
2023/07/25 07:15:59;;;;;;;757.38;476.58;;;;;;;;;;5086230;28;20512;-63
2023/07/25 07:18:28;;;;;;;749.90;476.77;;;;;;;;;;5085180;28;20433;-63
2023/07/25 07:20:55;;;;;;;749.92;507.00;;;;;;;;;;5081672;28;20433;-64
2023/07/25 07:23:22;;;;;;;737.60;483.65;;;;;;;;;;5087396;28;20432;-65
2023/07/25 07:25:50;;;;;;;731.03;487.23;;;;;;;;;;5082887;28;20422;-66
2023/07/25 07:28:18;;;;;;;721.55;475.85;;;;;;;;;;5082978;28;20446;-66
2023/07/25 07:30:49;;;;;;;714.92;467.73;;;;;;;;;;5084051;28;20447;-66
2023/07/25 07:33:19;;;;;;;707.47;458.95;;;;;;;;;;5084823;28;20459;-66
2023/07/25 07:35:49;;;;;;;704.50;464.57;;;;;;;;;;5086125;28;20417;-66
2023/07/25 07:38:16;;;;;;;696.38;444.20;;;;;;;;;;5083342;28;20429;-66
2023/07/25 07:40:44;;;;;;;694.53;449.43;;;;;;;;;;5082555;28;20429;-66
2023/07/25 07:43:11;;;;;;;688.80;432.83;;;;;;;;;;5083079;28;20506;-68
2023/07/25 07:45:41;;;;;;;691.83;446.93;;;;;;;;;;5081697;28;20431;-73
2023/07/25 07:48:08;;;;;;;676.30;409.83;;;;;;;;;;5089949;28;20422;-75
2023/07/25 07:50:36;;;;;;;668.60;424.73;;;;;;;;;;5079828;28;21016;-71
2023/07/25 07:53:03;;;;;;;659.05;407.15;;;;;;;;;;5070774;28;20434;-70
2023/07/25 07:55:30;;;;;;;660.28;404.80;;;;;;;;;;5081834;28;20987;-69
2023/07/25 07:57:57;;;;;;;649.45;394.95;;;;;;;;;;5084234;28;20430;-67
2023/07/25 08:00:34;;;;;;;637.10;375.50;;;;;;;;;;5082557;28;20491;-67
2023/07/25 08:03:01;;;;;;;646.80;382.70;;;;;;;;;;5086969;28;22211;-67
2023/07/25 08:05:31;;;;;;;650.90;390.88;;;;;;;;;;5090036;28;20432;-67
2023/07/25 08:07:58;;;;;;;661.75;411.17;;;;;;;;;;5088498;28;20433;-67
2023/07/25 08:10:25;;;;;;;653.58;368.15;;;;;;;;;;5086154;28;20816;-66
2023/07/25 08:12:53;;;;;;;646.42;370.80;;;;;;;;;;5086560;28;20432;-67
2023/07/25 08:15:20;;;;;;;656.87;402.10;;;;;;;;;;5090321;28;20449;-68
2023/07/25 08:17:47;;;;;;;663.23;401.57;;;;;;;;;;5098049;28;20949;-68
2023/07/25 08:20:15;;;;;;;666.65;428.10;;;;;;;;;;5101229;28;20821;-68
2023/07/25 08:22:42;;;;;;;656.53;412.25;;;;;;;;;;5088896;28;20426;-68
2023/07/25 08:25:11;;;;;;;656.03;400.83;;;;;;;;;;5074472;28;20481;-68
2023/07/25 08:27:41;;;;;;;642.22;388.80;;;;;;;;;;5089254;28;20433;-69
2023/07/25 08:30:11;;;;;;;631.78;368.70;;;;;;;;;;5092195;28;20428;-68
2023/07/25 08:32:38;;;;;;;610.33;335.77;;;;;;;;;;5085352;28;20434;-70
2023/07/25 08:35:09;;;;;;;597.83;332.30;;;;;;;;;;5093726;28;20430;-71
2023/07/25 08:37:36;;;;;;;602.72;302.48;;;;;;;;;;5085112;28;20467;-69
2023/07/25 08:40:06;;;;;;;592.72;312.02;;;;;;;;;;5089818;28;20780;-69
2023/07/25 08:42:38;;;;;;;583.22;294.52;;;;;;;;;;5075512;28;20474;-69
2023/07/25 08:45:06;;;;;;;584.45;304.15;;;;;;;;;;5079041;28;20434;-69
2023/07/25 08:47:34;;;;;;;582.13;295.17;;;;;;;;;;5081484;28;20920;-69
2023/07/25 08:50:05;;;;;;;581.83;293.43;;;;;;;;;;5084635;28;20499;-71
2023/07/25 08:52:32;;;;;;;576.22;288.30;;;;;;;;;;5067910;28;20425;-74
2023/07/25 08:55:00;;;;;;;569.30;267.90;;;;;;;;;;5088357;28;20529;-75
2023/07/25 08:57:28;;;;;;;568.50;272.77;;;;;;;;;;5082188;28;20428;-72
2023/07/25 08:59:55;;;;;;;566.17;259.77;;;;;;;;;;5062115;28;20515;-75
2023/07/25 09:02:26;;;;;;;569.00;274.85;;;;;;;;;;5085812;28;20426;-74
2023/07/25 09:04:56;;;;;;;562.22;271.27;;;;;;;;;;5082837;28;20429;-74
2023/07/25 09:07:24;;;;;;;562.97;278.52;;;;;;;;;;5077991;28;20507;-74
2023/07/25 09:09:51;;;;;;;565.28;284.20;;;;;;;;;;5072994;28;20511;-75
2023/07/25 09:12:19;;;;;;;579.38;299.52;;;;;;;;;;5082670;28;20945;-73
2023/07/25 09:14:49;;;;;;;568.63;292.60;;;;;;;;;;5087870;28;20462;-73
2023/07/25 09:17:20;;;;;;;577.72;307.08;;;;;;;;;;5086143;28;20421;-73
2023/07/25 09:19:50;;;;;;;603.90;345.88;;;;;;;;;;5086158;28;20445;-74
2023/07/25 09:22:29;;;;;;;624.75;363.98;;;;;;;;;;5089611;28;20483;-74
2023/07/25 09:24:58;;;;;;;644.40;378.60;;;;;;;;;;5091211;28;20430;-75
2023/07/25 09:27:28;;;;;;;677.13;431.23;;;;;;;;;;5088408;28;20958;-73
2023/07/25 09:29:56;;;;;;;673.55;433.85;;;;;;;;;;5085589;28;20787;-75
2023/07/25 09:32:24;;;;;;;683.97;460.33;;;;;;;;;;5094878;28;20421;-73
2023/07/25 09:34:55;;;;;;;706.38;479.73;;;;;;;;;;5084669;28;20453;-74
2023/07/25 09:37:26;;;;;;;725.03;497.05;;;;;;;;;;5103226;28;20429;-75
2023/07/25 09:39:56;;;;;;;730.40;495.83;;;;;;;;;;5089975;28;21149;-75
2023/07/25 09:42:24;;;;;;;742.17;519.17;;;;;;;;;;5098585;28;20418;-75
2023/07/25 09:44:52;;;;;;;774.67;551.92;;;;;;;;;;5081073;28;20429;-75
2023/07/25 09:47:23;;;;;;;779.47;531.65;;;;;;;;;;5087566;28;20796;-74
2023/07/25 09:49:51;;;;;;;795.45;534.03;;;;;;;;;;5071651;28;20427;-73
2023/07/25 09:52:21;;;;;;;781.90;551.37;;;;;;;;;;5095629;28;20462;-74
2023/07/25 09:54:49;;;;;;;794.35;540.97;;;;;;;;;;5086678;28;20429;-74
2023/07/25 09:57:19;;;;;;;788.97;547.73;;;;;;;;;;5087842;28;20469;-76
2023/07/25 09:59:48;;;;;;;779.60;555.17;;;;;;;;;;5080584;28;20451;-74
2023/07/25 10:02:16;;;;;;;788.90;551.03;;;;;;;;;;5090211;28;20713;-74
2023/07/25 10:04:43;;;;;;;804.78;554.20;;;;;;;;;;5103602;28;20502;-74
2023/07/25 10:07:14;;;;;;;811.20;548.00;;;;;;;;;;5090796;28;20531;-73
2023/07/25 10:09:41;;;;;;;826.00;570.28;;;;;;;;;;5078219;28;20430;-71
2023/07/25 10:12:08;;;;;;;816.47;578.15;;;;;;;;;;5084566;28;20818;-71
2023/07/25 10:14:37;;;;;;;803.23;596.37;;;;;;;;;;5078848;28;20542;-73
2023/07/25 10:17:05;;;;;;;812.45;613.10;;;;;;;;;;5084263;28;20426;-74
2023/07/25 10:19:47;;;;;;;827.77;603.77;;;;;;;;;;5083509;28;20423;-74
2023/07/25 10:22:15;;;;;;;826.73;608.60;;;;;;;;;;5080146;28;20427;-73
2023/07/25 10:24:45;;;;;;;846.13;634.25;;;;;;;;;;5092248;28;20426;-73
2023/07/25 10:27:13;;;;;;;862.10;653.43;;;;;;;;;;5079481;28;20429;-71
2023/07/25 10:29:43;;;;;;;845.53;665.33;;;;;;;;;;5087070;28;20465;-72
2023/07/25 10:32:14;;;;;;;845.67;663.60;;;;;;;;;;5089561;28;20485;-71
2023/07/25 10:34:46;;;;;;;840.53;652.33;;;;;;;;;;5073641;28;20449;-71
2023/07/25 10:37:21;;;;;;;852.45;644.13;;;;;;;;;;5064479;28;20522;-70
2023/07/25 10:40:09;;;;;;;850.63;652.15;;;;;;;;;;5080423;28;20431;-71
2023/07/25 10:42:51;;;;;;;855.05;648.03;;;;;;;;;;5085951;28;20718;-70
2023/07/25 10:45:27;;;;;;;860.70;648.07;;;;;;;;;;5084049;28;20440;-69
2023/07/25 10:47:59;;;;;;;873.65;652.03;;;;;;;;;;5075343;28;20431;-68
2023/07/25 10:50:45;;;;;;;875.17;652.45;;;;;;;;;;5088588;28;20449;-70
2023/07/25 10:53:24;;;;;;;871.80;643.00;;;;;;;;;;5094832;28;20481;-69
2023/07/25 10:56:03;;;;;;;872.00;641.13;;;;;;;;;;5090380;28;20556;-68
2023/07/25 10:58:37;;;;;;;877.88;648.10;;;;;;;;;;5080461;28;20949;-68
2023/07/25 11:01:08;;;;;;;872.60;633.63;;;;;;;;;;5067076;28;20426;-69
2023/07/25 11:03:36;;;;;;;878.90;648.85;;;;;;;;;;5071690;28;20434;-68
2023/07/25 11:06:07;;;;;;;881.92;641.33;;;;;;;;;;5083477;28;20417;-68
2023/07/25 11:08:34;;;;;;;872.88;634.67;;;;;;;;;;5083424;28;20531;-68
2023/07/25 11:11:05;;;;;;;877.10;644.42;;;;;;;;;;5080938;28;20524;-67
2023/07/25 11:13:36;;;;;;;886.05;654.63;;;;;;;;;;5077419;28;20530;-68
2023/07/25 11:16:04;;;;;;;888.85;662.17;;;;;;;;;;5079927;28;20434;-68
2023/07/25 11:18:37;;;;;;;895.58;669.72;;;;;;;;;;5085837;28;20475;-67
2023/07/25 11:21:08;;;;;;;889.77;663.17;;;;;;;;;;5084721;28;20503;-69
2023/07/25 11:23:36;;;;;;;886.20;659.38;;;;;;;;;;5082667;28;20428;-67
2023/07/25 11:26:07;;;;;;;884.67;651.28;;;;;;;;;;5083415;28;20429;-69
2023/07/25 11:28:43;;;;;;;895.45;656.97;;;;;;;;;;5082705;28;20459;-69
2023/07/25 11:31:11;;;;;;;885.05;650.70;;;;;;;;;;5082828;28;20459;-69
2023/07/25 11:33:39;;;;;;;889.13;665.33;;;;;;;;;;5084311;28;21020;-69
2023/07/25 11:36:06;;;;;;;896.67;671.22;;;;;;;;;;5063342;28;20430;-69
2023/07/25 11:38:37;;;;;;;892.38;666.97;;;;;;;;;;5085417;28;20485;-69
2023/07/25 11:41:05;;;;;;;912.72;692.35;;;;;;;;;;5084507;28;20454;-69
2023/07/25 11:43:33;;;;;;;912.78;695.13;;;;;;;;;;5081017;28;20485;-67
2023/07/25 11:46:00;;;;;;;910.97;693.47;;;;;;;;;;5082419;28;20933;-67
2023/07/25 11:48:30;;;;;;;904.15;684.67;;;;;;;;;;5074985;28;20475;-68
2023/07/25 11:51:00;;;;;;;913.40;696.23;;;;;;;;;;5067772;28;21068;-68
2023/07/25 11:53:29;;;;;;;898.65;678.72;;;;;;;;;;5083072;28;20451;-72
2023/07/25 11:56:01;;;;;;;905.42;684.70;;;;;;;;;;5082149;28;20438;-68
2023/07/25 11:58:28;;;;;;;904.83;695.60;;;;;;;;;;5087967;28;20930;-67
2023/07/25 12:00:55;;;;;;;929.97;719.92;;;;;;;;;;5077496;28;21068;-67
2023/07/25 12:03:24;;;;;;;947.72;743.30;;;;;;;;;;5082379;28;20432;-67
2023/07/25 12:06:01;;;;;;;927.58;724.90;;;;;;;;;;5081609;28;20426;-67
2023/07/25 12:08:34;;;;;;;922.58;719.60;;;;;;;;;;5071234;28;20461;-67
2023/07/25 12:11:04;;;;;;;920.10;719.47;;;;;;;;;;5078984;28;20438;-67
2023/07/25 12:13:31;;;;;;;931.60;736.03;;;;;;;;;;5087116;28;20494;-67
2023/07/25 12:16:01;;;;;;;937.78;744.95;;;;;;;;;;5089855;28;20943;-67
2023/07/25 12:18:32;;;;;;;938.05;749.15;;;;;;;;;;5081905;28;20515;-67
2023/07/25 12:21:00;;;;;;;934.25;742.88;;;;;;;;;;5084979;28;20495;-66
2023/07/25 12:23:31;;;;;;;935.22;750.92;;;;;;;;;;5085242;28;20449;-67
2023/07/25 12:26:01;;;;;;;936.47;749.72;;;;;;;;;;5098905;28;20463;-66
2023/07/25 12:28:38;;;;;;;948.45;780.80;;;;;;;;;;5082762;28;20430;-66
2023/07/25 12:31:07;;;;;;;954.53;780.17;;;;;;;;;;5071292;28;20435;-66
2023/07/25 12:33:35;;;;;;;943.58;764.53;;;;;;;;;;5088949;28;20430;-66
2023/07/25 12:36:03;;;;;;;936.38;760.75;;;;;;;;;;5080994;28;20437;-66
2023/07/25 12:38:32;;;;;;;946.15;773.25;;;;;;;;;;5076585;28;20990;-66
2023/07/25 12:41:03;;;;;;;944.55;766.08;;;;;;;;;;5080164;28;20446;-66
2023/07/25 12:43:30;;;;;;;937.17;758.13;;;;;;;;;;5084473;28;20500;-66
2023/07/25 12:45:57;;;;;;;931.53;745.15;;;;;;;;;;5082978;28;20441;-66
2023/07/25 12:48:25;;;;;;;935.90;745.20;;;;;;;;;;5076654;28;20434;-65
2023/07/25 12:50:52;;;;;;;939.80;755.05;;;;;;;;;;5077724;28;20433;-65
2023/07/25 12:53:22;;;;;;;932.40;744.22;;;;;;;;;;5085730;28;20455;-67
2023/07/25 12:55:49;;;;;;;908.20;719.60;;;;;;;;;;5083922;28;20426;-65
2023/07/25 12:58:16;;;;;;;882.00;693.33;;;;;;;;;;5064688;28;20426;-66
2023/07/25 13:00:44;;;;;;;883.25;694.70;;;;;;;;;;5079822;28;20874;-66
2023/07/25 13:03:12;;;;;;;880.17;679.15;;;;;;;;;;5083348;28;20424;-66
2023/07/25 13:05:40;;;;;;;877.95;684.92;;;;;;;;;;5083160;28;20452;-66
2023/07/25 13:08:07;;;;;;;916.97;680.97;;;;;;;;;;5060439;28;20918;-65
2023/07/25 13:10:34;;;;;;;899.28;685.28;;;;;;;;;;5085500;28;20458;-63
2023/07/25 13:13:02;;;;;;;903.30;695.38;;;;;;;;;;5067822;28;20425;-66
2023/07/25 13:15:29;;;;;;;918.65;744.60;;;;;;;;;;5084202;28;20425;-66
2023/07/25 13:17:56;;;;;;;932.03;746.97;;;;;;;;;;5078228;28;20479;-66
2023/07/25 13:20:23;;;;;;;923.88;725.17;;;;;;;;;;5080058;28;20437;-65
2023/07/25 13:22:52;;;;;;;913.15;717.22;;;;;;;;;;5079401;28;20439;-65
2023/07/25 13:25:19;;;;;;;904.92;703.63;;;;;;;;;;5085564;28;20446;-65
2023/07/25 13:27:47;;;;;;;888.83;684.92;;;;;;;;;;5075008;28;20913;-65
2023/07/25 13:30:14;;;;;;;914.73;598.10;;;;;;;;;;5085254;28;20426;-65
2023/07/25 13:32:41;;;;;;;897.72;694.33;;;;;;;;;;5084526;28;20545;-63
2023/07/25 13:35:09;;;;;;;894.63;684.70;;;;;;;;;;5084819;28;21139;-64
2023/07/25 13:37:36;;;;;;;896.97;685.60;;;;;;;;;;5079242;28;21376;-64
2023/07/25 13:40:04;;;;;;;921.67;722.95;;;;;;;;;;5060669;28;20524;-65
2023/07/25 13:42:39;;;;;;;894.40;684.38;;;;;;;;;;5083146;28;20425;-64
2023/07/25 13:45:06;;;;;;;920.47;689.00;;;;;;;;;;5082067;28;20900;-66
2023/07/25 13:47:34;;;;;;;916.72;692.33;;;;;;;;;;5083440;28;20441;-64
2023/07/25 13:50:02;;;;;;;919.72;606.08;;;;;;;;;;5077566;28;20426;-64
2023/07/25 13:52:30;;;;;;;915.60;608.72;;;;;;;;;;5084250;28;20431;-64
2023/07/25 13:55:00;;;;;;;909.67;704.43;;;;;;;;;;5077810;28;20473;-65
2023/07/25 13:57:27;;;;;;;923.45;521.15;;;;;;;;;;5083638;28;20431;-65
2023/07/25 13:59:59;;;;;;;891.83;627.72;;;;;;;;;;5084990;28;20431;-64